Time;durP1;ratioP1;P1;durP2;ratioP2;P2;SDS_P1;SDS_P2;PMS_P1;PMS_P2;Temp;Humidity;BMP_temperature;BMP_pressure;BME280_temperature;BME280_humidity;BME280_pressure;Samples;Min_cycle;Max_cycle;Signal;HPM_P1;HPM_P2
2021/08/16 00:01:09;;;;;;;13.45;3.42;;;;;;;;;;5010486;28;20231;-67
2021/08/16 00:03:34;;;;;;;13.25;3.15;;;;;;;;;;5014583;28;20245;-69
2021/08/16 00:05:59;;;;;;;14.52;3.70;;;;;;;;;;5009453;28;20522;-69
2021/08/16 00:08:25;;;;;;;16.10;3.33;;;;;;;;;;5049444;28;20227;-68
2021/08/16 00:10:50;;;;;;;11.95;3.55;;;;;;;;;;5008544;28;20193;-68
2021/08/16 00:13:16;;;;;;;10.68;3.22;;;;;;;;;;5015571;28;20182;-68
2021/08/16 00:15:41;;;;;;;14.50;3.25;;;;;;;;;;5013689;28;20192;-68
2021/08/16 00:18:07;;;;;;;17.92;3.30;;;;;;;;;;5024719;28;20235;-69
2021/08/16 00:20:32;;;;;;;12.32;2.97;;;;;;;;;;5015501;28;20280;-69
2021/08/16 00:22:58;;;;;;;17.88;3.35;;;;;;;;;;5024343;28;20582;-68
2021/08/16 00:25:24;;;;;;;11.52;3.35;;;;;;;;;;5016297;28;20197;-68
2021/08/16 00:27:49;;;;;;;17.23;3.40;;;;;;;;;;5019788;28;20209;-68
2021/08/16 00:30:15;;;;;;;13.38;3.17;;;;;;;;;;5026068;28;20865;-69
2021/08/16 00:32:40;;;;;;;14.38;3.88;;;;;;;;;;5013629;28;20681;-68
2021/08/16 00:35:06;;;;;;;13.52;3.67;;;;;;;;;;5026388;28;20197;-68
2021/08/16 00:37:31;;;;;;;10.50;2.78;;;;;;;;;;5009533;28;20190;-69
2021/08/16 00:39:57;;;;;;;10.93;3.47;;;;;;;;;;5022491;28;20244;-71
2021/08/16 00:42:22;;;;;;;14.43;3.78;;;;;;;;;;5012720;28;20194;-68
2021/08/16 00:44:48;;;;;;;13.60;3.63;;;;;;;;;;5025210;28;20289;-69
2021/08/16 00:47:14;;;;;;;13.90;3.85;;;;;;;;;;5017009;28;20210;-70
2021/08/16 00:49:40;;;;;;;13.82;4.43;;;;;;;;;;5022392;28;20203;-69
2021/08/16 00:52:06;;;;;;;16.23;3.67;;;;;;;;;;5017350;28;20182;-70
2021/08/16 00:54:32;;;;;;;12.88;3.35;;;;;;;;;;5022452;28;20194;-70
2021/08/16 00:57:02;;;;;;;9.93;3.42;;;;;;;;;;5012979;28;20194;-70
2021/08/16 00:59:28;;;;;;;14.23;3.35;;;;;;;;;;5021155;28;20240;-70
2021/08/16 01:01:53;;;;;;;10.07;3.55;;;;;;;;;;5025242;28;20226;-70
2021/08/16 01:04:19;;;;;;;16.02;3.80;;;;;;;;;;5015695;28;20228;-69
2021/08/16 01:06:47;;;;;;;11.63;3.28;;;;;;;;;;5025022;28;20209;-68
2021/08/16 01:09:12;;;;;;;9.98;3.70;;;;;;;;;;5014571;28;20633;-70
2021/08/16 01:11:37;;;;;;;16.77;3.97;;;;;;;;;;5016645;28;20209;-70
2021/08/16 01:14:03;;;;;;;11.40;3.40;;;;;;;;;;5014003;28;20193;-68
2021/08/16 01:16:28;;;;;;;15.95;3.95;;;;;;;;;;5021571;28;20187;-70
2021/08/16 01:18:54;;;;;;;16.02;4.05;;;;;;;;;;5017455;28;20186;-69
2021/08/16 01:21:19;;;;;;;15.93;4.32;;;;;;;;;;5024205;28;20611;-70
2021/08/16 01:23:46;;;;;;;11.75;3.72;;;;;;;;;;5015339;28;20673;-70
2021/08/16 01:26:12;;;;;;;17.80;4.35;;;;;;;;;;5014453;28;20282;-71
2021/08/16 01:28:37;;;;;;;22.27;4.50;;;;;;;;;;5016766;28;20300;-70
2021/08/16 01:31:05;;;;;;;14.70;4.13;;;;;;;;;;5022930;28;20194;-69
2021/08/16 01:33:31;;;;;;;24.13;5.10;;;;;;;;;;5015968;28;20605;-70
2021/08/16 01:35:57;;;;;;;22.27;5.05;;;;;;;;;;5018653;28;20227;-70
2021/08/16 01:38:27;;;;;;;22.20;4.95;;;;;;;;;;5018345;28;20190;-70
2021/08/16 01:40:52;;;;;;;22.13;4.75;;;;;;;;;;5016234;28;20190;-68
2021/08/16 01:43:18;;;;;;;17.30;4.38;;;;;;;;;;5018063;28;20205;-69
2021/08/16 01:45:43;;;;;;;21.67;5.15;;;;;;;;;;5015954;28;20646;-70
2021/08/16 01:48:08;;;;;;;20.13;4.63;;;;;;;;;;5019056;28;20207;-70
2021/08/16 01:50:34;;;;;;;19.83;5.30;;;;;;;;;;5014161;28;20193;-70
2021/08/16 01:52:59;;;;;;;19.70;4.57;;;;;;;;;;5023298;28;20185;-70
2021/08/16 01:55:25;;;;;;;21.83;5.63;;;;;;;;;;5017193;28;20194;-70
2021/08/16 01:57:51;;;;;;;21.85;5.40;;;;;;;;;;5024399;28;20187;-70
2021/08/16 02:00:16;;;;;;;21.40;5.18;;;;;;;;;;5015465;28;20543;-70
2021/08/16 02:02:42;;;;;;;19.30;5.03;;;;;;;;;;5019367;28;20313;-69
2021/08/16 02:05:08;;;;;;;17.38;4.50;;;;;;;;;;5012898;28;20202;-70
2021/08/16 02:07:34;;;;;;;25.75;5.10;;;;;;;;;;5017027;28;20218;-69
2021/08/16 02:09:59;;;;;;;22.67;5.10;;;;;;;;;;5016905;28;20217;-70
2021/08/16 02:12:25;;;;;;;19.88;5.10;;;;;;;;;;5018455;28;20269;-69
2021/08/16 02:14:50;;;;;;;22.13;4.78;;;;;;;;;;5020279;28;20215;-69
2021/08/16 02:17:15;;;;;;;20.95;5.05;;;;;;;;;;5018082;28;20198;-70
2021/08/16 02:19:41;;;;;;;26.48;6.05;;;;;;;;;;5013719;28;20191;-70
2021/08/16 02:22:06;;;;;;;20.52;5.35;;;;;;;;;;5018638;28;20251;-70
2021/08/16 02:24:31;;;;;;;20.17;4.97;;;;;;;;;;5022254;28;20182;-69
2021/08/16 02:26:56;;;;;;;19.80;5.07;;;;;;;;;;5021329;28;20222;-70
2021/08/16 02:29:22;;;;;;;15.55;4.80;;;;;;;;;;5021165;28;20280;-70
2021/08/16 02:31:47;;;;;;;18.38;4.88;;;;;;;;;;5017341;28;20190;-69
2021/08/16 02:34:13;;;;;;;19.50;5.22;;;;;;;;;;5017625;28;20190;-70
2021/08/16 02:36:38;;;;;;;15.80;4.82;;;;;;;;;;5024213;28;20178;-71
2021/08/16 02:39:04;;;;;;;22.90;5.13;;;;;;;;;;5017815;28;20186;-69
2021/08/16 02:41:30;;;;;;;18.75;5.20;;;;;;;;;;5028209;28;20182;-70
2021/08/16 02:43:55;;;;;;;18.33;5.57;;;;;;;;;;5021265;28;20186;-70
2021/08/16 02:46:20;;;;;;;20.90;5.70;;;;;;;;;;5016496;28;20186;-72
2021/08/16 02:48:46;;;;;;;19.77;4.90;;;;;;;;;;5013884;28;20206;-71
2021/08/16 02:51:12;;;;;;;18.60;5.20;;;;;;;;;;5020371;28;20282;-68
2021/08/16 02:53:37;;;;;;;15.57;4.70;;;;;;;;;;5016854;28;20272;-70
2021/08/16 02:56:03;;;;;;;19.08;5.65;;;;;;;;;;5024443;28;20624;-69
2021/08/16 02:58:28;;;;;;;19.42;4.80;;;;;;;;;;5015294;28;20712;-69
2021/08/16 03:00:54;;;;;;;21.65;4.72;;;;;;;;;;5024321;28;20244;-69
2021/08/16 03:03:19;;;;;;;25.50;6.00;;;;;;;;;;5017805;28;22421;-70
2021/08/16 03:05:45;;;;;;;26.30;5.60;;;;;;;;;;5027183;28;20583;-70
2021/08/16 03:08:10;;;;;;;17.27;4.43;;;;;;;;;;5023779;28;20286;-70
2021/08/16 03:10:35;;;;;;;17.58;4.85;;;;;;;;;;5021912;28;20193;-70
2021/08/16 03:13:01;;;;;;;15.18;5.10;;;;;;;;;;5024382;28;20554;-70
2021/08/16 03:15:27;;;;;;;17.15;4.70;;;;;;;;;;5017242;28;20194;-70
2021/08/16 03:17:52;;;;;;;17.92;5.53;;;;;;;;;;5024804;28;20546;-70
2021/08/16 03:20:18;;;;;;;23.42;5.50;;;;;;;;;;5020403;28;20635;-69
2021/08/16 03:22:43;;;;;;;26.13;5.82;;;;;;;;;;5017085;28;20193;-70
2021/08/16 03:25:10;;;;;;;23.23;5.32;;;;;;;;;;5020518;28;20190;-70
2021/08/16 03:27:35;;;;;;;25.35;5.38;;;;;;;;;;5024885;28;20193;-70
2021/08/16 03:30:02;;;;;;;22.48;5.53;;;;;;;;;;5014978;28;20200;-70
2021/08/16 03:32:28;;;;;;;18.15;5.35;;;;;;;;;;5025224;28;20190;-69
2021/08/16 03:34:54;;;;;;;23.30;6.53;;;;;;;;;;5015178;28;20198;-70
2021/08/16 03:37:19;;;;;;;18.50;5.32;;;;;;;;;;5022553;28;20688;-68
2021/08/16 03:39:44;;;;;;;25.73;5.70;;;;;;;;;;5026007;28;20179;-69
2021/08/16 03:42:10;;;;;;;23.00;5.60;;;;;;;;;;5016384;28;20193;-70
2021/08/16 03:44:35;;;;;;;20.40;5.88;;;;;;;;;;5029572;28;20195;-69
2021/08/16 03:47:01;;;;;;;26.85;5.70;;;;;;;;;;5014998;28;20194;-70
2021/08/16 03:49:26;;;;;;;21.17;5.53;;;;;;;;;;5032845;28;20202;-70
2021/08/16 03:51:52;;;;;;;16.50;5.55;;;;;;;;;;5014750;28;20650;-68
2021/08/16 03:54:17;;;;;;;16.35;5.22;;;;;;;;;;5030951;28;20552;-70
2021/08/16 03:56:42;;;;;;;29.13;6.22;;;;;;;;;;5014379;28;20244;-70
2021/08/16 03:59:08;;;;;;;23.88;5.97;;;;;;;;;;5022703;28;20541;-70
2021/08/16 04:01:33;;;;;;;22.20;5.75;;;;;;;;;;5015452;28;20194;-69
2021/08/16 04:04:01;;;;;;;19.88;5.72;;;;;;;;;;5026720;28;20257;-70
2021/08/16 04:06:26;;;;;;;21.10;5.97;;;;;;;;;;5015885;28;20654;-70
2021/08/16 04:08:52;;;;;;;20.50;5.97;;;;;;;;;;5027067;28;20288;-70
2021/08/16 04:11:17;;;;;;;24.80;6.85;;;;;;;;;;5021262;28;20186;-69
2021/08/16 04:13:42;;;;;;;23.67;6.55;;;;;;;;;;5019972;28;20189;-69
2021/08/16 04:16:08;;;;;;;22.40;6.45;;;;;;;;;;5016385;28;20183;-70
2021/08/16 04:18:33;;;;;;;23.65;6.78;;;;;;;;;;5010253;28;20186;-69
2021/08/16 04:20:59;;;;;;;18.73;6.43;;;;;;;;;;5020173;28;20191;-69
2021/08/16 04:23:24;;;;;;;18.00;6.30;;;;;;;;;;5008083;28;20187;-68
2021/08/16 04:25:50;;;;;;;25.75;7.35;;;;;;;;;;5022235;28;20186;-69
2021/08/16 04:28:15;;;;;;;25.98;6.57;;;;;;;;;;5004530;28;20226;-70
2021/08/16 04:30:40;;;;;;;22.27;6.53;;;;;;;;;;5020063;28;20182;-70
2021/08/16 04:33:06;;;;;;;21.00;6.32;;;;;;;;;;5009013;28;20214;-71
2021/08/16 04:35:31;;;;;;;28.25;7.03;;;;;;;;;;5019659;28;20656;-71
2021/08/16 04:37:57;;;;;;;20.50;6.90;;;;;;;;;;5014988;28;20197;-70
2021/08/16 04:40:22;;;;;;;23.15;6.88;;;;;;;;;;5021983;28;20262;-70
2021/08/16 04:42:48;;;;;;;21.20;6.82;;;;;;;;;;5022868;28;20547;-70
2021/08/16 04:45:14;;;;;;;22.90;7.32;;;;;;;;;;5020381;28;20197;-70
2021/08/16 04:47:44;;;;;;;20.85;7.18;;;;;;;;;;5025367;28;20980;-69
2021/08/16 04:50:11;;;;;;;26.77;8.32;;;;;;;;;;5011657;28;20182;-71
2021/08/16 04:52:36;;;;;;;26.48;7.13;;;;;;;;;;5017655;28;20186;-70
2021/08/16 04:55:02;;;;;;;20.83;6.43;;;;;;;;;;5034859;28;20182;-69
2021/08/16 04:57:32;;;;;;;22.13;7.30;;;;;;;;;;5018749;28;20225;-70
2021/08/16 04:59:58;;;;;;;20.88;6.97;;;;;;;;;;5012166;28;20209;-70
2021/08/16 05:02:23;;;;;;;23.00;6.82;;;;;;;;;;5018476;28;20229;-71
2021/08/16 05:04:53;;;;;;;17.83;6.63;;;;;;;;;;5016410;28;20241;-71
2021/08/16 05:07:19;;;;;;;20.25;6.43;;;;;;;;;;5018071;28;20266;-71
2021/08/16 05:09:44;;;;;;;22.33;6.93;;;;;;;;;;5019759;28;20214;-71
2021/08/16 05:12:10;;;;;;;25.25;7.85;;;;;;;;;;5022729;28;20186;-71
2021/08/16 05:14:35;;;;;;;22.20;7.80;;;;;;;;;;5028875;28;20186;-70
2021/08/16 05:17:00;;;;;;;37.33;7.88;;;;;;;;;;5004820;28;20547;-72
2021/08/16 05:19:26;;;;;;;27.52;7.00;;;;;;;;;;5020142;28;20178;-70
2021/08/16 05:21:51;;;;;;;23.65;7.63;;;;;;;;;;5009911;28;20221;-71
2021/08/16 05:24:16;;;;;;;25.13;8.40;;;;;;;;;;5017512;28;20182;-71
2021/08/16 05:26:42;;;;;;;25.23;7.85;;;;;;;;;;5011174;28;20185;-70
2021/08/16 05:29:07;;;;;;;26.17;7.97;;;;;;;;;;5028945;28;20210;-71
2021/08/16 05:31:32;;;;;;;23.27;7.72;;;;;;;;;;5015082;28;20240;-70
2021/08/16 05:33:58;;;;;;;22.88;7.35;;;;;;;;;;5021484;28;20182;-70
2021/08/16 05:36:23;;;;;;;22.02;7.60;;;;;;;;;;5013292;28;20282;-70
2021/08/16 05:38:48;;;;;;;19.65;6.97;;;;;;;;;;5020577;28;20178;-70
2021/08/16 05:41:14;;;;;;;18.65;6.93;;;;;;;;;;5012389;28;20190;-70
2021/08/16 05:43:39;;;;;;;21.55;7.38;;;;;;;;;;5023756;28;20181;-70
2021/08/16 05:46:04;;;;;;;18.88;6.88;;;;;;;;;;5017120;28;20656;-70
2021/08/16 05:48:30;;;;;;;22.67;7.75;;;;;;;;;;5018167;28;20292;-70
2021/08/16 05:50:55;;;;;;;26.02;7.70;;;;;;;;;;5019609;28;20186;-70
2021/08/16 05:53:20;;;;;;;23.08;6.85;;;;;;;;;;5016100;28;20190;-70
2021/08/16 05:55:46;;;;;;;16.67;6.35;;;;;;;;;;5022511;28;20333;-69
2021/08/16 05:58:11;;;;;;;27.70;7.50;;;;;;;;;;5014846;28;20186;-70
2021/08/16 06:00:37;;;;;;;21.17;6.82;;;;;;;;;;5028884;28;20228;-70
2021/08/16 06:03:02;;;;;;;16.20;6.50;;;;;;;;;;5022021;28;20236;-70
2021/08/16 06:05:27;;;;;;;17.35;6.20;;;;;;;;;;5025377;28;20193;-70
2021/08/16 06:07:53;;;;;;;18.70;6.57;;;;;;;;;;5016986;28;20190;-70
2021/08/16 06:10:18;;;;;;;14.75;5.30;;;;;;;;;;5023007;28;20653;-69
2021/08/16 06:12:43;;;;;;;18.15;5.63;;;;;;;;;;5022027;28;20577;-70
2021/08/16 06:15:09;;;;;;;16.52;5.78;;;;;;;;;;5020252;28;20186;-70
2021/08/16 06:17:37;;;;;;;19.45;5.82;;;;;;;;;;5023793;28;20178;-70
2021/08/16 06:20:04;;;;;;;18.27;5.95;;;;;;;;;;5014999;28;20197;-67
2021/08/16 06:22:30;;;;;;;22.95;6.65;;;;;;;;;;5029579;28;20214;-68
2021/08/16 06:24:55;;;;;;;21.73;5.90;;;;;;;;;;5016444;28;20589;-70
2021/08/16 06:27:21;;;;;;;18.60;6.30;;;;;;;;;;5025054;28;20274;-69
2021/08/16 06:29:46;;;;;;;20.98;6.68;;;;;;;;;;5017323;28;20639;-70
2021/08/16 06:32:11;;;;;;;23.92;7.70;;;;;;;;;;5020204;28;20233;-69
2021/08/16 06:34:40;;;;;;;19.75;8.10;;;;;;;;;;5015781;28;20193;-69
2021/08/16 06:37:06;;;;;;;24.50;8.35;;;;;;;;;;5032689;28;20290;-69
2021/08/16 06:39:31;;;;;;;30.10;9.13;;;;;;;;;;5011447;28;20182;-68
2021/08/16 06:41:57;;;;;;;23.10;9.32;;;;;;;;;;5020261;28;20229;-68
2021/08/16 06:44:25;;;;;;;22.40;9.90;;;;;;;;;;5011477;28;20197;-70
2021/08/16 06:46:51;;;;;;;17.20;9.77;;;;;;;;;;5023971;28;20186;-70
2021/08/16 06:49:16;;;;;;;20.33;10.40;;;;;;;;;;5020769;28;20213;-70
2021/08/16 06:51:42;;;;;;;24.77;11.82;;;;;;;;;;5018266;28;20198;-72
2021/08/16 06:54:08;;;;;;;27.73;11.93;;;;;;;;;;5023716;28;20193;-71
2021/08/16 06:56:34;;;;;;;25.88;12.50;;;;;;;;;;5020346;28;20613;-70
2021/08/16 06:59:00;;;;;;;24.15;11.75;;;;;;;;;;5018603;28;20209;-71
2021/08/16 07:01:26;;;;;;;26.75;13.35;;;;;;;;;;5017357;28;20195;-71
2021/08/16 07:03:53;;;;;;;22.85;12.75;;;;;;;;;;5020623;28;20309;-76
2021/08/16 07:06:19;;;;;;;19.60;13.18;;;;;;;;;;5017275;28;20218;-71
2021/08/16 07:08:44;;;;;;;29.83;14.27;;;;;;;;;;5023076;28;20206;-71
2021/08/16 07:11:09;;;;;;;22.23;14.20;;;;;;;;;;5024062;28;20591;-73
2021/08/16 07:13:35;;;;;;;25.98;14.38;;;;;;;;;;5024096;28;20217;-73
2021/08/16 07:16:00;;;;;;;23.38;12.80;;;;;;;;;;5021049;28;20247;-72
2021/08/16 07:18:25;;;;;;;24.20;11.35;;;;;;;;;;5022128;28;20274;-74
2021/08/16 07:20:51;;;;;;;18.35;10.05;;;;;;;;;;5022227;28;20228;-75
2021/08/16 07:23:16;;;;;;;8.57;5.10;;;;;;;;;;5014257;28;20561;-74
2021/08/16 07:25:41;;;;;;;6.35;3.95;;;;;;;;;;5026108;28;20180;-73
2021/08/16 07:28:07;;;;;;;7.55;4.25;;;;;;;;;;5012503;28;20252;-74
2021/08/16 07:30:33;;;;;;;7.10;3.83;;;;;;;;;;5061017;28;20513;-73
2021/08/16 07:33:00;;;;;;;6.10;3.83;;;;;;;;;;5029760;28;20288;-73
2021/08/16 07:35:25;;;;;;;11.30;5.40;;;;;;;;;;5028522;28;20182;-72
2021/08/16 07:37:50;;;;;;;10.35;6.38;;;;;;;;;;5008893;28;20228;-74
2021/08/16 07:40:17;;;;;;;11.10;8.25;;;;;;;;;;5026930;28;20195;-74
2021/08/16 07:42:43;;;;;;;15.13;9.35;;;;;;;;;;5010965;28;20210;-73
2021/08/16 07:45:09;;;;;;;15.55;10.13;;;;;;;;;;5023291;28;20232;-73
2021/08/16 07:47:34;;;;;;;13.23;9.88;;;;;;;;;;5011367;28;20696;-74
2021/08/16 07:50:00;;;;;;;16.42;10.93;;;;;;;;;;5023902;28;20237;-73
2021/08/16 07:52:25;;;;;;;14.90;10.95;;;;;;;;;;5018840;28;20186;-73
2021/08/16 07:54:54;;;;;;;10.25;5.43;;;;;;;;;;5018163;28;20240;-71
2021/08/16 07:57:20;;;;;;;3.65;2.45;;;;;;;;;;5016697;28;20222;-74
2021/08/16 07:59:45;;;;;;;2.58;1.65;;;;;;;;;;5010481;28;20198;-72
2021/08/16 08:02:10;;;;;;;4.53;2.03;;;;;;;;;;5022855;28;20233;-74
2021/08/16 08:04:36;;;;;;;3.53;1.98;;;;;;;;;;5014625;28;23065;-74
2021/08/16 08:07:01;;;;;;;6.47;2.38;;;;;;;;;;5020830;28;20517;-75
2021/08/16 08:09:27;;;;;;;5.15;2.42;;;;;;;;;;5015922;28;20708;-73
2021/08/16 08:11:52;;;;;;;2.78;2.40;;;;;;;;;;5020198;28;20190;-73
2021/08/16 08:14:18;;;;;;;5.65;2.40;;;;;;;;;;5015303;28;20236;-74
2021/08/16 08:16:43;;;;;;;9.10;2.90;;;;;;;;;;5022462;28;20163;-73
2021/08/16 08:19:08;;;;;;;6.38;2.88;;;;;;;;;;5018444;28;20240;-73
2021/08/16 08:21:34;;;;;;;10.82;2.90;;;;;;;;;;5021376;28;20213;-73
2021/08/16 08:23:59;;;;;;;6.25;3.50;;;;;;;;;;5024295;28;20379;-75
2021/08/16 08:26:24;;;;;;;6.93;2.90;;;;;;;;;;5008929;28;20269;-74
2021/08/16 08:28:50;;;;;;;5.35;2.47;;;;;;;;;;5024107;28;20241;-74
2021/08/16 08:31:15;;;;;;;4.88;3.05;;;;;;;;;;5013178;28;20244;-73
2021/08/16 08:33:41;;;;;;;4.90;2.58;;;;;;;;;;5027254;28;20586;-73
2021/08/16 08:36:06;;;;;;;5.97;3.03;;;;;;;;;;5017054;28;20187;-73
2021/08/16 08:38:31;;;;;;;6.20;2.60;;;;;;;;;;5026662;28;20618;-73
2021/08/16 08:40:59;;;;;;;6.30;3.03;;;;;;;;;;5013045;28;20190;-73
2021/08/16 08:43:26;;;;;;;5.22;2.60;;;;;;;;;;5022135;28;20276;-72
2021/08/16 08:45:54;;;;;;;6.22;3.03;;;;;;;;;;5012214;28;20190;-73
2021/08/16 08:48:20;;;;;;;5.72;2.60;;;;;;;;;;4324162;28;10000750;-72
2021/08/16 08:50:46;;;;;;;7.38;3.10;;;;;;;;;;5008490;28;20598;-72
2021/08/16 08:53:11;;;;;;;8.88;3.13;;;;;;;;;;5021896;28;20190;-72
2021/08/16 08:55:37;;;;;;;6.05;2.92;;;;;;;;;;5019889;28;20689;-73
2021/08/16 08:58:02;;;;;;;5.28;2.58;;;;;;;;;;5010880;28;20190;-72
2021/08/16 09:00:28;;;;;;;5.07;2.70;;;;;;;;;;5017405;28;20272;-72
2021/08/16 09:02:57;;;;;;;4.05;2.20;;;;;;;;;;5007108;28;20296;-71
2021/08/16 09:05:23;;;;;;;6.70;2.67;;;;;;;;;;5014563;28;20193;-75
2021/08/16 09:07:48;;;;;;;7.10;2.80;;;;;;;;;;5001357;28;20218;-71
2021/08/16 09:10:16;;;;;;;5.93;2.60;;;;;;;;;;5017470;28;20178;-71
2021/08/16 09:12:42;;;;;;;6.82;2.42;;;;;;;;;;5008139;28;20182;-73
2021/08/16 09:15:17;;;;;;;9.48;2.38;;;;;;;;;;5016561;28;20186;-74
2021/08/16 09:17:43;;;;;;;4.20;2.47;;;;;;;;;;5004360;28;20674;-75
2021/08/16 09:20:18;;;;;;;7.18;2.38;;;;;;;;;;5013386;28;20272;-71
2021/08/16 09:23:11;;;;;;;9.65;2.78;;;;;;;;;;5019891;28;20191;-70
2021/08/16 09:25:39;;;;;;;10.05;2.70;;;;;;;;;;5013946;28;20529;-71
2021/08/16 09:28:07;;;;;;;7.88;2.90;;;;;;;;;;5009584;28;20236;-74
2021/08/16 09:30:38;;;;;;;8.52;2.35;;;;;;;;;;5019698;28;20260;-71
2021/08/16 09:33:21;;;;;;;6.55;2.70;;;;;;;;;;5012111;28;20209;-70
2021/08/16 09:35:56;;;;;;;6.88;2.20;;;;;;;;;;5021196;28;20243;-73
2021/08/16 09:38:32;;;;;;;8.40;2.70;;;;;;;;;;5009456;28;20832;-71
2021/08/16 09:40:57;;;;;;;8.75;3.30;;;;;;;;;;5021964;28;20276;-70
2021/08/16 09:43:27;;;;;;;8.85;2.65;;;;;;;;;;5005048;28;20272;-73
2021/08/16 09:45:52;;;;;;;4.65;1.90;;;;;;;;;;5023756;28;20190;-71
2021/08/16 09:48:23;;;;;;;6.30;2.20;;;;;;;;;;5013024;28;20206;-69
2021/08/16 09:50:52;;;;;;;5.70;2.30;;;;;;;;;;5013481;28;20207;-71
2021/08/16 09:53:19;;;;;;;10.65;2.78;;;;;;;;;;5015501;28;20193;-69
2021/08/16 09:55:47;;;;;;;11.60;1.92;;;;;;;;;;5014569;28;20178;-71
2021/08/16 09:58:14;;;;;;;7.43;2.30;;;;;;;;;;5019417;28;20217;-71
2021/08/16 10:00:41;;;;;;;6.35;2.65;;;;;;;;;;5017887;28;20178;-70
2021/08/16 10:03:08;;;;;;;5.15;2.03;;;;;;;;;;5019134;28;20237;-71
2021/08/16 10:05:41;;;;;;;6.55;2.20;;;;;;;;;;5013635;28;20198;-70
2021/08/16 10:08:11;;;;;;;9.45;2.63;;;;;;;;;;5022187;28;20204;-72
2021/08/16 10:10:39;;;;;;;6.88;2.50;;;;;;;;;;5013906;28;20181;-69
2021/08/16 10:13:07;;;;;;;9.80;2.47;;;;;;;;;;5022842;28;20194;-70
2021/08/16 10:15:37;;;;;;;13.35;2.80;;;;;;;;;;5016295;28;20191;-69
2021/08/16 10:18:04;;;;;;;8.63;2.97;;;;;;;;;;5013123;28;20198;-70
2021/08/16 10:20:31;;;;;;;7.28;3.13;;;;;;;;;;5015982;28;20183;-71
2021/08/16 10:22:56;;;;;;;10.45;2.20;;;;;;;;;;5027532;28;20641;-69
2021/08/16 10:25:22;;;;;;;8.05;2.83;;;;;;;;;;5023993;28;20210;-70
2021/08/16 10:27:49;;;;;;;11.27;2.95;;;;;;;;;;5010926;28;20241;-73
2021/08/16 10:30:17;;;;;;;6.30;2.50;;;;;;;;;;5019508;28;20206;-70
2021/08/16 10:32:43;;;;;;;7.70;2.80;;;;;;;;;;5012527;28;20182;-72
2021/08/16 10:35:13;;;;;;;7.93;2.70;;;;;;;;;;5018372;28;20197;-70
2021/08/16 10:37:40;;;;;;;10.75;3.15;;;;;;;;;;5018063;28;20660;-72
2021/08/16 10:40:14;;;;;;;6.15;2.35;;;;;;;;;;5021478;28;20410;-70
2021/08/16 10:42:39;;;;;;;8.63;2.67;;;;;;;;;;5009656;28;20210;-72
2021/08/16 10:45:07;;;;;;;5.20;2.60;;;;;;;;;;5013304;28;20236;-73
2021/08/16 10:47:34;;;;;;;10.18;2.85;;;;;;;;;;5015449;28;20268;-70
2021/08/16 10:50:04;;;;;;;9.25;2.60;;;;;;;;;;5019346;28;20214;-72
2021/08/16 10:52:30;;;;;;;6.03;2.55;;;;;;;;;;5021011;28;20213;-69
2021/08/16 10:55:13;;;;;;;8.70;3.30;;;;;;;;;;5025441;28;20186;-71
2021/08/16 10:57:40;;;;;;;3.55;1.80;;;;;;;;;;5017544;28;20505;-70
2021/08/16 11:00:06;;;;;;;3.47;1.42;;;;;;;;;;5024005;28;20209;-74
2021/08/16 11:02:32;;;;;;;3.78;1.35;;;;;;;;;;5021917;28;20661;-71
2021/08/16 11:04:58;;;;;;;3.83;1.30;;;;;;;;;;5023360;28;20297;-69
2021/08/16 11:07:24;;;;;;;4.72;1.42;;;;;;;;;;5032435;28;20260;-69
2021/08/16 11:10:10;;;;;;;4.35;1.08;;;;;;;;;;5017278;28;20247;-71
2021/08/16 11:12:44;;;;;;;3.50;1.10;;;;;;;;;;5020530;28;20325;-70
2021/08/16 11:15:15;;;;;;;3.05;1.10;;;;;;;;;;5014158;28;20200;-71
2021/08/16 11:17:40;;;;;;;2.28;1.20;;;;;;;;;;5019214;28;20650;-70
2021/08/16 11:20:15;;;;;;;2.45;1.00;;;;;;;;;;5009628;28;20268;-70
2021/08/16 11:22:49;;;;;;;3.65;0.90;;;;;;;;;;5026974;28;20205;-70
2021/08/16 11:25:15;;;;;;;5.65;1.00;;;;;;;;;;5012756;28;20268;-72
2021/08/16 11:27:42;;;;;;;4.47;1.40;;;;;;;;;;5025117;28;20225;-72
2021/08/16 11:30:09;;;;;;;3.55;1.13;;;;;;;;;;5016529;28;20747;-72
2021/08/16 11:32:37;;;;;;;2.75;1.08;;;;;;;;;;5024908;28;20271;-71
2021/08/16 11:35:03;;;;;;;2.22;1.10;;;;;;;;;;5032809;28;20200;-70
2021/08/16 11:37:31;;;;;;;6.68;1.42;;;;;;;;;;5023476;28;20560;-70
2021/08/16 11:39:57;;;;;;;5.57;2.08;;;;;;;;;;5013460;28;20298;-71
2021/08/16 11:42:24;;;;;;;5.05;1.95;;;;;;;;;;5026313;28;20205;-73
2021/08/16 11:45:00;;;;;;;9.98;2.42;;;;;;;;;;5018290;28;20272;-74
2021/08/16 11:47:31;;;;;;;9.65;2.35;;;;;;;;;;5019728;28;20205;-71
2021/08/16 11:50:04;;;;;;;7.93;2.40;;;;;;;;;;5017078;28;20306;-69
2021/08/16 11:52:29;;;;;;;7.55;2.75;;;;;;;;;;5025470;28;20280;-73
2021/08/16 11:54:56;;;;;;;9.82;2.88;;;;;;;;;;5020815;28;20269;-70
2021/08/16 11:57:23;;;;;;;9.02;2.90;;;;;;;;;;5020261;28;20191;-71
2021/08/16 11:59:53;;;;;;;13.75;3.42;;;;;;;;;;5021338;28;20230;-71
2021/08/16 12:02:19;;;;;;;8.82;2.92;;;;;;;;;;5013188;28;20230;-71
2021/08/16 12:04:48;;;;;;;10.75;2.95;;;;;;;;;;5024617;28;20186;-71
2021/08/16 12:07:14;;;;;;;10.68;2.95;;;;;;;;;;5015985;28;20638;-71
2021/08/16 12:09:39;;;;;;;19.42;3.83;;;;;;;;;;5027588;28;20337;-70
2021/08/16 12:12:06;;;;;;;12.38;2.90;;;;;;;;;;5012742;28;20549;-72
2021/08/16 12:14:38;;;;;;;10.48;3.03;;;;;;;;;;5018145;28;20188;-69
2021/08/16 12:17:07;;;;;;;8.05;2.95;;;;;;;;;;5010205;28;20237;-70
2021/08/16 12:19:34;;;;;;;10.75;2.92;;;;;;;;;;5026766;28;20175;-70
2021/08/16 12:22:07;;;;;;;10.18;3.15;;;;;;;;;;5016778;28;20190;-72
2021/08/16 12:24:34;;;;;;;14.50;3.20;;;;;;;;;;5055814;28;20269;-71
2021/08/16 12:27:05;;;;;;;8.57;3.20;;;;;;;;;;5012567;28;20864;-71
2021/08/16 12:29:40;;;;;;;9.80;3.22;;;;;;;;;;5026289;28;20292;-71
2021/08/16 12:32:21;;;;;;;12.25;3.20;;;;;;;;;;5012988;28;22018;-71
2021/08/16 12:34:47;;;;;;;9.52;3.03;;;;;;;;;;5026029;28;20182;-76
2021/08/16 12:37:23;;;;;;;8.85;3.00;;;;;;;;;;5011486;28;20261;-71
2021/08/16 12:39:48;;;;;;;12.98;3.22;;;;;;;;;;5024224;28;20228;-70
2021/08/16 12:42:14;;;;;;;11.05;2.75;;;;;;;;;;5017357;28;20190;-70
2021/08/16 12:44:50;;;;;;;8.00;3.10;;;;;;;;;;5021644;28;20806;-72
2021/08/16 12:47:32;;;;;;;8.65;3.90;;;;;;;;;;5018693;28;20205;-72
2021/08/16 12:50:00;;;;;;;11.95;3.42;;;;;;;;;;5021288;28;20260;-71
2021/08/16 12:52:25;;;;;;;11.63;3.25;;;;;;;;;;5023473;28;20194;-72
2021/08/16 12:54:51;;;;;;;11.23;3.25;;;;;;;;;;5015709;28;20607;-71
2021/08/16 12:57:16;;;;;;;9.80;3.35;;;;;;;;;;5036756;28;20273;-72
2021/08/16 12:59:41;;;;;;;11.45;3.83;;;;;;;;;;5013815;28;20651;-72
2021/08/16 13:02:07;;;;;;;9.07;3.17;;;;;;;;;;5020628;28;20265;-71
2021/08/16 13:04:32;;;;;;;8.45;3.20;;;;;;;;;;5014686;28;20552;-72
2021/08/16 13:06:58;;;;;;;8.18;3.30;;;;;;;;;;5024880;28;20189;-72
2021/08/16 13:09:23;;;;;;;9.85;3.50;;;;;;;;;;5014423;28;20210;-74
2021/08/16 13:11:49;;;;;;;9.32;3.50;;;;;;;;;;5021895;28;20196;-72
2021/08/16 13:14:14;;;;;;;9.75;3.40;;;;;;;;;;5016521;28;20193;-72
2021/08/16 13:16:40;;;;;;;11.77;3.22;;;;;;;;;;5023944;28;20193;-71
2021/08/16 13:19:05;;;;;;;12.85;3.13;;;;;;;;;;5015071;28;20186;-71
2021/08/16 13:21:31;;;;;;;9.48;3.20;;;;;;;;;;5019934;28;20193;-71
2021/08/16 13:23:56;;;;;;;9.60;3.53;;;;;;;;;;5026498;28;20190;-72
2021/08/16 13:26:21;;;;;;;13.02;3.53;;;;;;;;;;5012482;28;20197;-75
2021/08/16 13:28:46;;;;;;;11.32;3.05;;;;;;;;;;5029097;28;20226;-72
2021/08/16 13:31:12;;;;;;;10.05;2.92;;;;;;;;;;5015749;28;20960;-72
2021/08/16 13:33:38;;;;;;;9.52;2.63;;;;;;;;;;5023358;28;20614;-74
2021/08/16 13:36:03;;;;;;;12.23;3.00;;;;;;;;;;5046443;28;20266;-71
2021/08/16 13:38:29;;;;;;;7.65;2.45;;;;;;;;;;5023224;28;20194;-73
2021/08/16 13:40:54;;;;;;;12.48;2.70;;;;;;;;;;5013087;28;20185;-71
2021/08/16 13:43:19;;;;;;;15.95;3.20;;;;;;;;;;5021285;28;20266;-72
2021/08/16 13:45:45;;;;;;;11.13;2.97;;;;;;;;;;5014960;28;20212;-71
2021/08/16 13:48:11;;;;;;;12.05;2.80;;;;;;;;;;5021641;28;20221;-71
2021/08/16 13:50:36;;;;;;;13.30;2.90;;;;;;;;;;5023172;28;20193;-72
2021/08/16 13:53:03;;;;;;;11.27;2.75;;;;;;;;;;5012286;28;20276;-74
2021/08/16 13:55:30;;;;;;;11.18;3.05;;;;;;;;;;5017827;28;20672;-74
2021/08/16 13:57:55;;;;;;;12.38;2.88;;;;;;;;;;5015434;28;20185;-73
2021/08/16 14:00:21;;;;;;;12.18;3.08;;;;;;;;;;5019533;28;20190;-73
2021/08/16 14:02:46;;;;;;;12.23;2.97;;;;;;;;;;5013001;28;20253;-73
2021/08/16 14:05:12;;;;;;;7.88;2.80;;;;;;;;;;5019723;28;20183;-73
2021/08/16 14:07:37;;;;;;;10.07;3.13;;;;;;;;;;5013669;28;20685;-70
2021/08/16 14:10:04;;;;;;;11.68;2.78;;;;;;;;;;5016971;28;20190;-72
2021/08/16 14:12:29;;;;;;;8.48;2.60;;;;;;;;;;5009122;28;20194;-72
2021/08/16 14:14:54;;;;;;;10.63;3.25;;;;;;;;;;5021274;28;20657;-73
2021/08/16 14:17:20;;;;;;;8.32;2.50;;;;;;;;;;5009153;28;20190;-70
2021/08/16 14:19:45;;;;;;;19.17;2.90;;;;;;;;;;5028375;28;20243;-73
2021/08/16 14:22:11;;;;;;;8.02;2.78;;;;;;;;;;5021131;28;20210;-74
2021/08/16 14:24:37;;;;;;;7.28;2.47;;;;;;;;;;5024515;28;20300;-72
2021/08/16 14:27:03;;;;;;;11.60;3.00;;;;;;;;;;5024837;28;20277;-74
2021/08/16 14:29:28;;;;;;;8.07;1.90;;;;;;;;;;5013862;28;20205;-72